Time;durP1;ratioP1;P1;durP2;ratioP2;P2;SDS_P1;SDS_P2;PMS_P1;PMS_P2;Temp;Humidity;BMP_temperature;BMP_pressure;BME280_temperature;BME280_humidity;BME280_pressure;Samples;Min_cycle;Max_cycle;Signal;HPM_P1;HPM_P2
2023/01/22 00:01:26;;;;;;;;;;;-0.80;99.90;;;;;;5107652;28;19988;-68
2023/01/22 00:03:53;;;;;;;;;;;-0.80;99.90;;;;;;5107471;28;19921;-68
2023/01/22 00:06:20;;;;;;;;;;;-0.80;99.90;;;;;;5106906;28;19928;-68
2023/01/22 00:08:48;;;;;;;;;;;-0.80;99.90;;;;;;5107141;28;19928;-68
2023/01/22 00:11:14;;;;;;;;;;;-0.80;99.90;;;;;;5107194;28;19924;-68
2023/01/22 00:13:41;;;;;;;;;;;-0.80;99.90;;;;;;5126237;28;20215;-68
2023/01/22 00:16:08;;;;;;;;;;;-0.80;99.90;;;;;;5126745;28;20195;-68
2023/01/22 00:18:36;;;;;;;;;;;-0.80;99.90;;;;;;5126907;28;19979;-69
2023/01/22 00:21:03;;;;;;;;;;;-0.80;99.90;;;;;;5126733;28;19919;-69
2023/01/22 00:23:29;;;;;;;;;;;-0.80;99.90;;;;;;5126880;28;19978;-69
2023/01/22 00:26:03;;;;;;;;;;;-0.70;99.90;;;;;;5126436;28;19986;-69
2023/01/22 00:28:30;;;;;;;;;;;-0.70;99.90;;;;;;5127174;28;19979;-69
2023/01/22 00:30:57;;;;;;;;;;;-0.70;99.90;;;;;;5127159;28;20292;-68
2023/01/22 00:33:23;;;;;;;;;;;-0.70;99.90;;;;;;5115071;28;19920;-69
2023/01/22 00:35:51;;;;;;;;;;;-0.70;99.90;;;;;;5106551;28;20159;-69
2023/01/22 00:38:18;;;;;;;;;;;-0.70;99.90;;;;;;5106219;28;20226;-69
2023/01/22 00:40:44;;;;;;;;;;;-0.70;99.90;;;;;;5106964;28;19962;-69
2023/01/22 00:43:11;;;;;;;;;;;-0.70;99.90;;;;;;5106746;28;19962;-69
2023/01/22 00:45:38;;;;;;;;;;;-0.70;99.90;;;;;;5106592;28;19959;-68
2023/01/22 00:48:05;;;;;;;;;;;-0.60;99.90;;;;;;5119649;28;20346;-68
2023/01/22 00:50:32;;;;;;;;;;;-0.70;99.90;;;;;;5127059;28;19923;-69
2023/01/22 00:53:02;;;;;;;;;;;-0.70;99.90;;;;;;5126646;28;20250;-69
2023/01/22 00:55:29;;;;;;;;;;;-0.70;99.90;;;;;;5127006;28;19920;-69
2023/01/22 00:57:55;;;;;;;;;;;-0.70;99.90;;;;;;5126175;28;19983;-68
2023/01/22 01:00:22;;;;;;;;;;;-0.70;99.90;;;;;;5126633;28;19959;-69
2023/01/22 01:05:33;;;;;;;;;;;-0.70;99.90;;;;;;5126578;28;20230;-69
2023/01/22 01:08:00;;;;;;;;;;;-0.70;99.90;;;;;;5126061;28;20347;-69
2023/01/22 01:10:27;;;;;;;;;;;-0.70;99.90;;;;;;5126415;28;19926;-69
2023/01/22 01:12:54;;;;;;;;;;;-0.70;99.90;;;;;;5126560;28;19983;-69
2023/01/22 01:15:20;;;;;;;;;;;-0.70;99.90;;;;;;5126372;28;20136;-69
2023/01/22 01:17:47;;;;;;;;;;;-0.60;99.90;;;;;;5112188;28;19947;-69
2023/01/22 01:20:14;;;;;;;;;;;-0.70;99.90;;;;;;5126480;28;19920;-68
2023/01/22 01:22:41;;;;;;;;;;;-0.60;99.90;;;;;;5125951;28;19920;-69
2023/01/22 01:25:09;;;;;;;;;;;-0.60;99.90;;;;;;5125956;28;19954;-69
2023/01/22 01:27:35;;;;;;;;;;;-0.60;99.90;;;;;;5124584;28;19927;-69
2023/01/22 01:30:02;;;;;;;;;;;-0.60;99.90;;;;;;5118571;28;19951;-69
2023/01/22 01:32:28;;;;;;;;;;;-0.60;99.90;;;;;;5125843;28;20222;-69
2023/01/22 01:34:55;;;;;;;;;;;-0.60;99.90;;;;;;5126079;28;20019;-69
2023/01/22 01:37:22;;;;;;;;;;;-0.60;99.90;;;;;;5125228;28;19987;-69
2023/01/22 01:39:51;;;;;;;;;;;-0.50;99.90;;;;;;5125995;28;19979;-69
2023/01/22 01:42:24;;;;;;;;;;;-0.50;99.90;;;;;;5126055;28;19919;-69
2023/01/22 01:45:05;;;;;;;;;;;-0.60;99.90;;;;;;5105520;28;19983;-68
2023/01/22 01:47:34;;;;;;;;;;;-0.60;99.90;;;;;;5104439;28;19983;-69
2023/01/22 01:50:01;;;;;;;;;;;-0.50;99.90;;;;;;5105532;28;20159;-68
2023/01/22 01:52:27;;;;;;;;;;;-0.60;99.90;;;;;;5105425;28;19920;-69
2023/01/22 01:54:56;;;;;;;;;;;-0.60;99.90;;;;;;5105223;28;20174;-69
2023/01/22 01:57:26;;;;;;;;;;;-0.60;99.90;;;;;;5104562;28;19955;-69
2023/01/22 01:59:53;;;;;;;;;;;-0.60;99.90;;;;;;5105291;28;19956;-69
2023/01/22 02:02:20;;;;;;;;;;;-0.60;99.90;;;;;;5104712;28;19920;-69
2023/01/22 02:04:47;;;;;;;;;;;-0.60;99.90;;;;;;5104653;28;19956;-69
2023/01/22 02:07:13;;;;;;;;;;;-0.50;99.90;;;;;;5104404;28;19987;-69
2023/01/22 02:09:40;;;;;;;;;;;-0.50;99.90;;;;;;5104786;28;20279;-69
2023/01/22 02:12:07;;;;;;;;;;;-0.50;99.90;;;;;;5104910;28;19958;-69
2023/01/22 02:14:38;;;;;;;;;;;-0.50;99.90;;;;;;5105023;28;20180;-69
2023/01/22 02:17:07;;;;;;;;;;;-0.50;99.90;;;;;;5104067;28;19920;-69
2023/01/22 02:19:33;;;;;;;;;;;-0.50;99.90;;;;;;5112794;28;19920;-69
2023/01/22 02:22:01;;;;;;;;;;;-0.50;99.90;;;;;;5124984;28;19991;-69
2023/01/22 02:24:29;;;;;;;;;;;-0.50;99.90;;;;;;5125168;28;19979;-69
2023/01/22 02:26:57;;;;;;;;;;;-0.50;99.90;;;;;;5121607;28;19926;-69
2023/01/22 02:29:25;;;;;;;;;;;-0.50;99.90;;;;;;5124764;28;19962;-69
2023/01/22 02:31:52;;;;;;;;;;;-0.50;99.90;;;;;;5124898;28;19965;-69
2023/01/22 02:34:18;;;;;;;;;;;-0.50;99.90;;;;;;5124593;28;20290;-69
2023/01/22 02:36:45;;;;;;;;;;;-0.40;99.90;;;;;;5123917;28;19962;-69
2023/01/22 02:39:13;;;;;;;;;;;-0.40;99.90;;;;;;5124670;28;19961;-69
2023/01/22 02:41:39;;;;;;;;;;;-0.50;99.90;;;;;;5124876;28;19926;-69
2023/01/22 02:44:06;;;;;;;;;;;-0.50;99.90;;;;;;5124877;28;20174;-69
2023/01/22 02:46:33;;;;;;;;;;;-0.50;99.90;;;;;;5123779;28;19920;-69
2023/01/22 02:48:59;;;;;;;;;;;-0.50;99.90;;;;;;5124793;28;19919;-69
2023/01/22 02:51:26;;;;;;;;;;;-0.50;99.90;;;;;;5124353;28;20263;-69
2023/01/22 02:53:53;;;;;;;;;;;-0.40;99.90;;;;;;5124671;28;20159;-69
2023/01/22 02:56:22;;;;;;;;;;;-0.50;99.90;;;;;;5123660;28;19934;-69
2023/01/22 02:58:48;;;;;;;;;;;-0.40;99.90;;;;;;5104212;28;19979;-69
2023/01/22 03:01:19;;;;;;;;;;;-0.50;99.90;;;;;;5110182;28;20227;-69
2023/01/22 03:03:46;;;;;;;;;;;-0.40;99.90;;;;;;5124553;28;19927;-69
2023/01/22 03:06:14;;;;;;;;;;;-0.40;99.90;;;;;;5123434;28;19926;-69
2023/01/22 03:08:41;;;;;;;;;;;-0.50;99.90;;;;;;5124828;28;19920;-68
2023/01/22 03:11:08;;;;;;;;;;;-0.40;99.90;;;;;;5124640;28;20003;-69
2023/01/22 03:21:48;;;;;;;;;;;-0.50;99.90;;;;;;5124229;28;19922;-69
2023/01/22 03:24:15;;;;;;;;;;;-0.50;99.90;;;;;;5124274;28;19983;-69
2023/01/22 03:26:41;;;;;;;;;;;-0.40;99.90;;;;;;5123272;28;19982;-69
2023/01/22 03:29:09;;;;;;;;;;;-0.50;99.90;;;;;;5124397;28;20196;-69
2023/01/22 03:31:36;;;;;;;;;;;-0.50;99.90;;;;;;5124391;28;20247;-69
2023/01/22 03:34:03;;;;;;;;;;;-0.50;99.90;;;;;;5124122;28;19966;-69
2023/01/22 03:36:29;;;;;;;;;;;-0.40;99.90;;;;;;5123675;28;19951;-69
2023/01/22 03:38:56;;;;;;;;;;;-0.40;99.90;;;;;;5124280;28;19920;-68
2023/01/22 03:41:22;;;;;;;;;;;-0.40;99.90;;;;;;5124337;28;19919;-68
2023/01/22 03:43:49;;;;;;;;;;;-0.40;99.90;;;;;;5124183;28;19927;-69
2023/01/22 03:46:18;;;;;;;;;;;-0.40;99.90;;;;;;5122961;28;19919;-68
2023/01/22 03:48:45;;;;;;;;;;;-0.40;99.90;;;;;;5103464;28;19992;-69
2023/01/22 03:51:12;;;;;;;;;;;-0.40;99.90;;;;;;5103792;28;19920;-69
2023/01/22 03:53:39;;;;;;;;;;;-0.40;99.90;;;;;;5103416;28;20002;-69
2023/01/22 03:56:07;;;;;;;;;;;-0.40;99.90;;;;;;5102746;28;20199;-67
2023/01/22 03:58:34;;;;;;;;;;;-0.40;99.90;;;;;;5103733;28;19952;-69
2023/01/22 04:01:01;;;;;;;;;;;-0.30;99.90;;;;;;5103322;28;20250;-69
2023/01/22 04:03:29;;;;;;;;;;;-0.40;99.90;;;;;;5103254;28;19927;-69
2023/01/22 04:05:58;;;;;;;;;;;-0.40;99.90;;;;;;5102864;28;19920;-69
2023/01/22 04:08:26;;;;;;;;;;;-0.40;99.90;;;;;;5103371;28;19973;-69
2023/01/22 04:10:52;;;;;;;;;;;-0.40;99.90;;;;;;5103307;28;20558;-69
2023/01/22 04:13:19;;;;;;;;;;;-0.40;99.90;;;;;;5103250;28;19987;-69
2023/01/22 04:15:45;;;;;;;;;;;-0.40;99.90;;;;;;5102763;28;19920;-68
2023/01/22 04:18:12;;;;;;;;;;;-0.40;99.90;;;;;;5103110;28;19920;-69
2023/01/22 04:20:40;;;;;;;;;;;-0.50;99.90;;;;;;5103455;28;19927;-67
2023/01/22 04:23:07;;;;;;;;;;;-0.40;99.90;;;;;;5103051;28;19920;-69
2023/01/22 04:25:34;;;;;;;;;;;-0.40;99.90;;;;;;5103057;28;19920;-69
2023/01/22 04:28:01;;;;;;;;;;;-0.40;99.90;;;;;;5106229;28;19958;-69
2023/01/22 04:30:28;;;;;;;;;;;-0.40;99.90;;;;;;5107046;28;19987;-69
2023/01/22 04:32:54;;;;;;;;;;;-0.30;99.90;;;;;;5106957;28;19990;-69
2023/01/22 04:35:21;;;;;;;;;;;-0.40;99.90;;;;;;5106661;28;19963;-69
2023/01/22 04:37:49;;;;;;;;;;;-0.40;99.90;;;;;;5106054;28;19920;-69
2023/01/22 04:40:16;;;;;;;;;;;-0.40;99.90;;;;;;5107031;28;19920;-69
2023/01/22 04:42:42;;;;;;;;;;;-0.40;99.90;;;;;;5106749;28;19948;-69
2023/01/22 04:45:09;;;;;;;;;;;-0.40;99.90;;;;;;5106836;28;19926;-69
2023/01/22 04:47:39;;;;;;;;;;;-0.30;99.90;;;;;;5119033;28;19986;-69
2023/01/22 04:50:06;;;;;;;;;;;-0.40;99.90;;;;;;5127283;28;19987;-69
2023/01/22 04:52:32;;;;;;;;;;;-0.30;99.90;;;;;;5127104;28;19926;-69
2023/01/22 04:55:00;;;;;;;;;;;-0.30;99.90;;;;;;5126729;28;19926;-69
2023/01/22 04:57:27;;;;;;;;;;;-0.30;99.90;;;;;;5126575;28;19926;-69
2023/01/22 04:59:54;;;;;;;;;;;-0.30;99.90;;;;;;5127098;28;20144;-68
2023/01/22 05:02:20;;;;;;;;;;;-0.30;99.90;;;;;;5126579;28;19990;-69
2023/01/22 05:04:47;;;;;;;;;;;-0.30;99.90;;;;;;5126811;28;20115;-69
2023/01/22 05:07:13;;;;;;;;;;;-0.30;99.90;;;;;;5126059;28;19979;-69
2023/01/22 05:09:40;;;;;;;;;;;-0.30;99.90;;;;;;5124458;28;19955;-69
2023/01/22 05:12:08;;;;;;;;;;;-0.30;99.90;;;;;;5121185;28;19951;-69
2023/01/22 05:14:35;;;;;;;;;;;-0.40;99.90;;;;;;5108938;28;19920;-69
2023/01/22 05:17:02;;;;;;;;;;;-0.40;99.90;;;;;;5111084;28;19955;-69
2023/01/22 05:19:28;;;;;;;;;;;-0.30;99.90;;;;;;5126665;28;19984;-69
2023/01/22 05:21:55;;;;;;;;;;;-0.30;99.90;;;;;;5126657;28;19920;-69
2023/01/22 05:24:21;;;;;;;;;;;-0.20;99.90;;;;;;5126230;28;19920;-69
2023/01/22 05:26:48;;;;;;;;;;;-0.30;99.90;;;;;;5125355;28;20012;-69
2023/01/22 05:29:16;;;;;;;;;;;-0.30;99.90;;;;;;5126222;28;19982;-67
2023/01/22 05:31:43;;;;;;;;;;;-0.20;99.90;;;;;;5126142;28;19942;-69
2023/01/22 05:34:09;;;;;;;;;;;-0.20;99.90;;;;;;5126377;28;19983;-69
2023/01/22 05:36:36;;;;;;;;;;;-0.20;99.90;;;;;;5125417;28;19983;-69
2023/01/22 05:39:03;;;;;;;;;;;-0.20;99.90;;;;;;5124476;28;19951;-69
2023/01/22 05:41:29;;;;;;;;;;;-0.30;99.90;;;;;;5126212;28;19920;-68
2023/01/22 05:43:57;;;;;;;;;;;-0.30;99.90;;;;;;5123950;28;19999;-69
2023/01/22 05:46:25;;;;;;;;;;;-0.20;99.90;;;;;;5124879;28;19919;-69
2023/01/22 05:48:52;;;;;;;;;;;-0.20;99.90;;;;;;5125998;28;19923;-69
2023/01/22 05:51:18;;;;;;;;;;;-0.20;99.90;;;;;;5125575;28;19920;-69
2023/01/22 05:53:45;;;;;;;;;;;-0.20;99.90;;;;;;5125659;28;19962;-69
2023/01/22 05:56:11;;;;;;;;;;;-0.30;99.90;;;;;;5124692;28;19926;-69
2023/01/22 05:58:38;;;;;;;;;;;-0.20;99.90;;;;;;5125711;28;19996;-69
2023/01/22 06:01:05;;;;;;;;;;;-0.20;99.90;;;;;;5125740;28;20110;-69
2023/01/22 06:03:33;;;;;;;;;;;-0.20;99.90;;;;;;5125568;28;19982;-69
2023/01/22 06:06:00;;;;;;;;;;;-0.20;99.90;;;;;;5124845;28;19982;-69
2023/01/22 06:08:26;;;;;;;;;;;-0.20;99.90;;;;;;5125533;28;19919;-68
2023/01/22 06:10:58;;;;;;;;;;;-0.20;99.90;;;;;;5125608;28;19923;-69
2023/01/22 06:13:25;;;;;;;;;;;-0.20;99.90;;;;;;5125109;28;19983;-69
2023/01/22 06:15:52;;;;;;;;;;;-0.20;99.90;;;;;;5124652;28;19983;-69
2023/01/22 06:18:19;;;;;;;;;;;-0.20;99.90;;;;;;5124673;28;19919;-69
2023/01/22 06:20:47;;;;;;;;;;;-0.20;99.90;;;;;;5125188;28;19919;-69
2023/01/22 06:23:13;;;;;;;;;;;-0.20;99.90;;;;;;5124944;28;19965;-69
2023/01/22 06:25:40;;;;;;;;;;;-0.20;99.90;;;;;;5124786;28;20179;-69
2023/01/22 06:28:07;;;;;;;;;;;-0.20;99.90;;;;;;5124598;28;19982;-69
2023/01/22 06:30:33;;;;;;;;;;;-0.20;99.90;;;;;;5125015;28;19987;-69
2023/01/22 06:33:00;;;;;;;;;;;-0.20;99.90;;;;;;5124765;28;19988;-69
2023/01/22 06:35:26;;;;;;;;;;;-0.20;99.90;;;;;;5125005;28;19955;-69
2023/01/22 06:37:54;;;;;;;;;;;-0.20;99.90;;;;;;5124431;28;19990;-69
2023/01/22 06:40:21;;;;;;;;;;;-0.20;99.90;;;;;;5125045;28;19991;-69
2023/01/22 06:42:48;;;;;;;;;;;-0.20;99.90;;;;;;5124668;28;19983;-69
2023/01/22 06:45:15;;;;;;;;;;;-0.20;99.90;;;;;;5124491;28;19987;-69
2023/01/22 06:47:43;;;;;;;;;;;-0.10;99.90;;;;;;5124188;28;19924;-69
2023/01/22 06:50:10;;;;;;;;;;;-0.10;99.90;;;;;;5124370;28;20249;-69
2023/01/22 06:52:36;;;;;;;;;;;-0.10;99.90;;;;;;5124590;28;19926;-69
2023/01/22 06:55:05;;;;;;;;;;;-0.10;99.90;;;;;;5124720;28;19999;-69
2023/01/22 06:57:32;;;;;;;;;;;-0.10;99.90;;;;;;5123666;28;19926;-69
2023/01/22 06:59:58;;;;;;;;;;;-0.10;99.90;;;;;;5124331;28;19983;-69
2023/01/22 07:02:25;;;;;;;;;;;-0.10;99.90;;;;;;5124656;28;19982;-69
2023/01/22 07:04:51;;;;;;;;;;;-0.20;99.90;;;;;;5124485;28;19979;-69
2023/01/22 07:07:18;;;;;;;;;;;-0.20;99.90;;;;;;5123661;28;19955;-69
2023/01/22 07:09:45;;;;;;;;;;;-0.10;99.90;;;;;;5124459;28;19955;-69
2023/01/22 07:12:13;;;;;;;;;;;-0.10;99.90;;;;;;5124125;28;19955;-69
2023/01/22 07:14:39;;;;;;;;;;;-0.10;99.90;;;;;;5123944;28;19919;-69
2023/01/22 07:17:06;;;;;;;;;;;-0.10;99.90;;;;;;5123699;28;20174;-69
2023/01/22 07:19:33;;;;;;;;;;;-0.10;99.90;;;;;;5124135;28;20254;-69
2023/01/22 07:21:59;;;;;;;;;;;-0.10;99.90;;;;;;5124383;28;19990;-69
2023/01/22 07:24:26;;;;;;;;;;;-0.10;99.90;;;;;;5123872;28;19955;-69
2023/01/22 07:26:52;;;;;;;;;;;-0.10;99.90;;;;;;5123335;28;20175;-69
2023/01/22 07:29:20;;;;;;;;;;;-0.10;99.90;;;;;;5121030;28;20249;-69
2023/01/22 07:31:47;;;;;;;;;;;0.00;99.90;;;;;;5124322;28;19942;-69
2023/01/22 07:34:14;;;;;;;;;;;-0.10;99.90;;;;;;5124299;28;20230;-69
2023/01/22 07:36:40;;;;;;;;;;;0.00;99.90;;;;;;5123427;28;19983;-69
2023/01/22 07:39:09;;;;;;;;;;;0.00;99.90;;;;;;5112860;28;19963;-69
2023/01/22 07:41:35;;;;;;;;;;;0.00;99.90;;;;;;5103643;28;19983;-69
2023/01/22 07:44:02;;;;;;;;;;;0.00;99.90;;;;;;5103719;28;20056;-69
2023/01/22 07:46:30;;;;;;;;;;;-0.10;99.90;;;;;;5102794;28;20224;-69
2023/01/22 07:48:57;;;;;;;;;;;-0.10;99.90;;;;;;5103396;28;19987;-68
2023/01/22 07:51:23;;;;;;;;;;;-0.10;99.90;;;;;;5102337;28;19988;-69
2023/01/22 07:53:50;;;;;;;;;;;-0.10;99.90;;;;;;5103363;28;19996;-69
2023/01/22 07:56:17;;;;;;;;;;;-0.10;99.90;;;;;;5102958;28;19951;-69
2023/01/22 07:58:44;;;;;;;;;;;-0.10;99.90;;;;;;5103710;28;19920;-69
2023/01/22 08:01:11;;;;;;;;;;;0.00;99.90;;;;;;5104457;28;19955;-68
2023/01/22 08:03:39;;;;;;;;;;;-0.10;99.90;;;;;;5107491;28;19986;-69
2023/01/22 08:06:07;;;;;;;;;;;-0.10;99.90;;;;;;5106825;28;19992;-68
2023/01/22 08:08:34;;;;;;;;;;;-0.10;99.90;;;;;;5107238;28;20275;-69
2023/01/22 08:11:00;;;;;;;;;;;0.00;99.90;;;;;;5107203;28;19950;-70
2023/01/22 08:13:27;;;;;;;;;;;0.00;99.90;;;;;;5120808;28;19979;-69
2023/01/22 08:15:54;;;;;;;;;;;0.00;99.90;;;;;;5127000;28;19983;-69
2023/01/22 08:18:21;;;;;;;;;;;0.00;99.90;;;;;;5127141;28;19920;-69
2023/01/22 08:20:49;;;;;;;;;;;0.10;99.90;;;;;;5127437;28;20148;-69
2023/01/22 08:23:16;;;;;;;;;;;0.10;99.90;;;;;;5127462;28;19920;-69
2023/01/22 08:25:42;;;;;;;;;;;0.20;99.90;;;;;;5127045;28;19927;-68
2023/01/22 08:28:09;;;;;;;;;;;0.20;99.90;;;;;;5126682;28;19987;-69
2023/01/22 08:30:36;;;;;;;;;;;0.20;99.90;;;;;;5127298;28;20194;-69
2023/01/22 08:33:02;;;;;;;;;;;0.20;99.90;;;;;;5127370;28;19920;-69
2023/01/22 08:35:29;;;;;;;;;;;0.20;99.90;;;;;;5126952;28;19982;-70
2023/01/22 08:37:59;;;;;;;;;;;0.20;99.90;;;;;;5123975;28;19958;-69
2023/01/22 08:40:26;;;;;;;;;;;0.20;99.90;;;;;;5127409;28;19920;-69
2023/01/22 08:42:53;;;;;;;;;;;0.20;99.90;;;;;;5127299;28;19941;-69
2023/01/22 08:45:19;;;;;;;;;;;0.30;99.90;;;;;;5127162;28;19926;-69
2023/01/22 08:47:46;;;;;;;;;;;0.30;99.90;;;;;;5126344;28;19920;-69
2023/01/22 08:50:13;;;;;;;;;;;0.30;99.90;;;;;;5127188;28;19955;-69
2023/01/22 08:52:39;;;;;;;;;;;0.30;99.90;;;;;;5126568;28;19920;-69
2023/01/22 08:55:09;;;;;;;;;;;0.30;99.90;;;;;;5124163;28;20400;-69
2023/01/22 08:57:36;;;;;;;;;;;0.30;99.90;;;;;;5126083;28;19935;-69
2023/01/22 09:00:03;;;;;;;;;;;0.30;99.90;;;;;;5126995;28;19951;-69
2023/01/22 09:02:30;;;;;;;;;;;0.30;99.90;;;;;;5126633;28;19926;-69
2023/01/22 09:04:57;;;;;;;;;;;0.30;99.90;;;;;;5103736;28;19991;-69
2023/01/22 09:07:24;;;;;;;;;;;0.30;99.90;;;;;;5105753;28;19926;-69
2023/01/22 09:09:51;;;;;;;;;;;0.30;99.90;;;;;;5106238;28;20382;-69
2023/01/22 09:12:18;;;;;;;;;;;0.40;99.90;;;;;;5108784;28;19962;-69
2023/01/22 09:14:45;;;;;;;;;;;0.40;99.90;;;;;;5126025;28;19963;-68
2023/01/22 09:17:12;;;;;;;;;;;0.40;99.90;;;;;;5126063;28;19926;-69
2023/01/22 09:19:39;;;;;;;;;;;0.40;99.90;;;;;;5126403;28;20289;-69
2023/01/22 09:22:06;;;;;;;;;;;0.50;99.90;;;;;;5123926;28;19951;-69
2023/01/22 09:24:33;;;;;;;;;;;0.50;99.90;;;;;;5125797;28;19924;-69
2023/01/22 09:26:59;;;;;;;;;;;0.50;99.90;;;;;;5125431;28;19979;-69
2023/01/22 09:29:27;;;;;;;;;;;0.50;99.90;;;;;;5126234;28;19926;-69
2023/01/22 09:31:54;;;;;;;;;;;0.40;99.90;;;;;;5105604;28;19920;-68
2023/01/22 09:34:20;;;;;;;;;;;0.50;99.90;;;;;;5105655;28;19963;-69
2023/01/22 09:36:47;;;;;;;;;;;0.50;99.90;;;;;;5105068;28;19920;-69
2023/01/22 09:39:14;;;;;;;;;;;0.40;99.90;;;;;;5125445;28;19979;-69
2023/01/22 09:41:42;;;;;;;;;;;0.40;99.90;;;;;;5126190;28;19988;-69
2023/01/22 09:44:11;;;;;;;;;;;0.40;99.90;;;;;;5125536;28;20358;-69
2023/01/22 09:46:41;;;;;;;;;;;0.40;99.90;;;;;;5125456;28;19979;-70
2023/01/22 09:49:11;;;;;;;;;;;0.50;99.90;;;;;;5126018;28;20012;-69
2023/01/22 09:51:38;;;;;;;;;;;0.50;99.90;;;;;;5119501;28;19979;-69
2023/01/22 09:54:07;;;;;;;;;;;0.50;99.90;;;;;;5104696;28;19924;-69
2023/01/22 09:56:36;;;;;;;;;;;0.50;99.90;;;;;;5104481;28;19920;-69
2023/01/22 09:59:04;;;;;;;;;;;0.50;99.90;;;;;;5105179;28;19954;-69
2023/01/22 10:01:31;;;;;;;;;;;0.40;99.90;;;;;;5105045;28;20219;-70
2023/01/22 10:04:02;;;;;;;;;;;0.40;99.90;;;;;;5105836;28;19920;-69
2023/01/22 10:06:29;;;;;;;;;;;0.40;99.90;;;;;;5104021;28;19920;-69
2023/01/22 10:08:59;;;;;;;;;;;0.30;99.90;;;;;;5105013;28;19924;-69
2023/01/22 10:11:26;;;;;;;;;;;0.40;99.90;;;;;;5104529;28;19920;-69
2023/01/22 10:13:54;;;;;;;;;;;0.40;99.90;;;;;;5102608;28;19997;-69
2023/01/22 10:16:20;;;;;;;;;;;0.40;99.90;;;;;;5104006;28;19987;-69
2023/01/22 10:18:48;;;;;;;;;;;0.40;99.90;;;;;;5121065;28;20160;-69
2023/01/22 10:21:18;;;;;;;;;;;0.40;99.90;;;;;;5125149;28;19951;-69
2023/01/22 10:23:45;;;;;;;;;;;0.40;99.90;;;;;;5124521;28;19954;-69
2023/01/22 10:26:14;;;;;;;;;;;0.40;99.90;;;;;;5121709;28;20255;-69
2023/01/22 10:28:43;;;;;;;;;;;0.40;99.90;;;;;;5125000;28;19995;-69
2023/01/22 10:31:19;;;;;;;;;;;0.50;99.90;;;;;;5125048;28;19923;-69
2023/01/22 10:33:46;;;;;;;;;;;0.50;99.90;;;;;;5124670;28;19951;-69
2023/01/22 10:36:13;;;;;;;;;;;0.50;99.90;;;;;;5123873;28;19953;-70
2023/01/22 10:38:41;;;;;;;;;;;0.50;99.90;;;;;;5124265;28;19926;-70
2023/01/22 10:41:16;;;;;;;;;;;0.60;99.90;;;;;;5124792;28;19920;-70
2023/01/22 10:43:43;;;;;;;;;;;0.60;99.90;;;;;;5124566;28;19920;-77
2023/01/22 10:46:16;;;;;;;;;;;0.50;99.90;;;;;;5121515;28;19926;-69
2023/01/22 10:48:43;;;;;;;;;;;0.60;99.90;;;;;;5111528;28;19983;-70
2023/01/22 10:51:14;;;;;;;;;;;0.60;99.90;;;;;;5106018;28;19987;-70
2023/01/22 10:53:46;;;;;;;;;;;0.50;99.90;;;;;;5116283;28;19919;-70
2023/01/22 10:56:13;;;;;;;;;;;0.60;99.90;;;;;;5103008;28;19926;-70
2023/01/22 10:58:45;;;;;;;;;;;0.60;99.90;;;;;;5103880;28;20396;-70
2023/01/22 11:01:25;;;;;;;;;;;0.70;99.90;;;;;;5116685;28;19999;-70
2023/01/22 11:03:51;;;;;;;;;;;0.70;99.90;;;;;;5119260;28;19981;-70
2023/01/22 11:06:21;;;;;;;;;;;0.80;99.90;;;;;;5115021;28;20162;-70
2023/01/22 11:08:51;;;;;;;;;;;0.80;99.90;;;;;;5122225;28;19987;-70
2023/01/22 11:11:20;;;;;;;;;;;0.90;99.90;;;;;;5119612;28;19920;-70
2023/01/22 11:13:51;;;;;;;;;;;1.00;99.90;;;;;;5111897;28;19982;-69
2023/01/22 11:16:18;;;;;;;;;;;1.00;99.90;;;;;;5113146;28;19926;-70
2023/01/22 11:18:48;;;;;;;;;;;1.00;99.90;;;;;;5106928;28;19927;-69
2023/01/22 11:21:15;;;;;;;;;;;1.00;99.90;;;;;;5103664;28;19928;-70
2023/01/22 11:23:46;;;;;;;;;;;1.00;99.90;;;;;;5120709;28;19951;-70
2023/01/22 11:26:16;;;;;;;;;;;1.00;99.90;;;;;;5102948;28;19920;-69
2023/01/22 11:28:50;;;;;;;;;;;1.00;99.90;;;;;;5103986;28;19955;-69
2023/01/22 11:31:25;;;;;;;;;;;1.00;99.90;;;;;;5103905;28;20169;-69
2023/01/22 11:34:05;;;;;;;;;;;0.90;99.90;;;;;;5102325;28;19987;-69
2023/01/22 11:36:34;;;;;;;;;;;1.00;99.90;;;;;;5110363;28;19963;-69
2023/01/22 11:39:04;;;;;;;;;;;1.00;99.90;;;;;;5127358;28;20033;-69
2023/01/22 11:41:43;;;;;;;;;;;1.00;99.90;;;;;;5118334;28;19957;-69
2023/01/22 11:44:34;;;;;;;;;;;1.00;99.90;;;;;;5125747;28;19920;-69
2023/01/22 11:47:06;;;;;;;;;;;0.90;99.90;;;;;;5121859;28;19987;-70
2023/01/22 11:49:40;;;;;;;;;;;0.90;99.90;;;;;;5117033;28;19920;-69
2023/01/22 11:52:13;;;;;;;;;;;0.90;99.90;;;;;;5112269;28;20259;-69
2023/01/22 11:54:49;;;;;;;;;;;0.90;99.90;;;;;;5114769;28;19926;-68
2023/01/22 11:57:20;;;;;;;;;;;0.90;99.90;;;;;;5117144;28;19979;-69
2023/01/22 11:59:53;;;;;;;;;;;1.00;99.90;;;;;;5127611;28;19919;-69
2023/01/22 12:02:30;;;;;;;;;;;1.00;99.90;;;;;;5127295;28;20119;-69
2023/01/22 12:05:04;;;;;;;;;;;0.90;99.90;;;;;;5125607;28;20234;-69
2023/01/22 12:07:39;;;;;;;;;;;0.90;99.90;;;;;;5124457;28;19919;-69
2023/01/22 12:10:19;;;;;;;;;;;0.90;99.90;;;;;;5127769;28;19943;-69
2023/01/22 12:12:52;;;;;;;;;;;0.90;99.90;;;;;;5127155;28;19926;-68
2023/01/22 12:15:28;;;;;;;;;;;1.00;99.90;;;;;;5119595;28;19947;-69
2023/01/22 12:18:03;;;;;;;;;;;1.00;99.90;;;;;;5123703;28;19951;-69
2023/01/22 12:20:34;;;;;;;;;;;1.10;99.90;;;;;;5107058;28;20203;-69
2023/01/22 12:23:02;;;;;;;;;;;1.10;99.90;;;;;;5113667;28;19978;-69
2023/01/22 12:25:38;;;;;;;;;;;1.10;99.90;;;;;;5113294;28;20188;-69
2023/01/22 12:28:10;;;;;;;;;;;1.00;99.90;;;;;;5111942;28;20202;-70
2023/01/22 12:30:41;;;;;;;;;;;1.00;99.90;;;;;;5127322;28;20228;-70
2023/01/22 12:33:11;;;;;;;;;;;1.00;99.90;;;;;;5119264;28;20115;-69
2023/01/22 12:35:38;;;;;;;;;;;1.00;99.90;;;;;;5127002;28;19940;-69
2023/01/22 12:38:09;;;;;;;;;;;1.00;99.90;;;;;;5126904;28;19920;-69
2023/01/22 12:40:52;;;;;;;;;;;1.10;99.90;;;;;;5126626;28;19986;-70
2023/01/22 12:43:23;;;;;;;;;;;1.10;99.90;;;;;;5117057;28;19926;-69
2023/01/22 12:45:55;;;;;;;;;;;1.10;99.90;;;;;;5125677;28;20218;-69
2023/01/22 12:48:25;;;;;;;;;;;1.10;99.90;;;;;;5119941;28;19990;-69
2023/01/22 12:50:53;;;;;;;;;;;1.20;99.90;;;;;;5106391;28;19920;-69
2023/01/22 12:53:24;;;;;;;;;;;1.30;99.90;;;;;;5113184;28;19920;-69
2023/01/22 12:55:58;;;;;;;;;;;1.30;99.90;;;;;;5125635;28;19982;-70
2023/01/22 12:58:27;;;;;;;;;;;1.40;99.90;;;;;;5111496;28;19947;-69
2023/01/22 13:00:59;;;;;;;;;;;1.40;99.90;;;;;;5106542;28;19956;-69
2023/01/22 13:03:28;;;;;;;;;;;1.40;99.90;;;;;;5120906;28;19919;-69
2023/01/22 13:05:54;;;;;;;;;;;1.40;99.90;;;;;;5126172;28;19920;-69
2023/01/22 13:08:26;;;;;;;;;;;1.40;99.90;;;;;;5126604;28;19920;-69
2023/01/22 13:10:54;;;;;;;;;;;1.30;99.90;;;;;;5126452;28;20207;-69
2023/01/22 13:13:22;;;;;;;;;;;1.20;99.90;;;;;;5126351;28;19943;-70
2023/01/22 13:15:53;;;;;;;;;;;1.20;99.90;;;;;;5121101;28;19920;-69
2023/01/22 13:18:22;;;;;;;;;;;1.20;99.90;;;;;;5119674;28;20238;-69
2023/01/22 13:20:52;;;;;;;;;;;1.30;99.90;;;;;;5126104;28;19920;-68
2023/01/22 13:23:19;;;;;;;;;;;1.30;99.90;;;;;;5114787;28;19990;-68
2023/01/22 13:25:52;;;;;;;;;;;1.30;99.90;;;;;;5112480;28;20234;-69
2023/01/22 13:28:19;;;;;;;;;;;1.20;99.90;;;;;;5105836;28;19962;-69
2023/01/22 13:30:56;;;;;;;;;;;1.20;99.90;;;;;;5105774;28;20167;-70
2023/01/22 13:33:23;;;;;;;;;;;1.10;99.90;;;;;;5105587;28;20164;-69
2023/01/22 13:35:49;;;;;;;;;;;1.10;99.90;;;;;;5105281;28;19952;-69
2023/01/22 13:38:17;;;;;;;;;;;1.20;99.90;;;;;;5119710;28;20178;-69
2023/01/22 13:40:44;;;;;;;;;;;1.20;99.90;;;;;;5125865;28;19944;-69
2023/01/22 13:43:15;;;;;;;;;;;1.20;99.90;;;;;;5125925;28;19982;-70
2023/01/22 13:45:41;;;;;;;;;;;1.20;99.90;;;;;;5123566;28;19920;-69
2023/01/22 13:48:14;;;;;;;;;;;1.30;99.90;;;;;;5105021;28;19987;-70
2023/01/22 13:50:44;;;;;;;;;;;1.30;99.90;;;;;;5105785;28;19987;-69
2023/01/22 13:53:15;;;;;;;;;;;1.30;99.90;;;;;;5104957;28;20226;-70
2023/01/22 13:55:42;;;;;;;;;;;1.30;99.90;;;;;;5105045;28;19988;-68
2023/01/22 13:58:23;;;;;;;;;;;1.30;99.90;;;;;;5116267;28;19991;-70
2023/01/22 14:00:52;;;;;;;;;;;1.30;99.90;;;;;;5125060;28;20207;-69
2023/01/22 14:03:21;;;;;;;;;;;1.20;99.90;;;;;;5125743;28;19983;-69
2023/01/22 14:05:48;;;;;;;;;;;1.20;99.90;;;;;;5124841;28;20234;-69
2023/01/22 14:08:14;;;;;;;;;;;1.20;99.90;;;;;;5124797;28;19987;-70
2023/01/22 14:10:42;;;;;;;;;;;1.10;99.90;;;;;;5125681;28;19983;-69
2023/01/22 14:13:09;;;;;;;;;;;1.20;99.90;;;;;;5125426;28;19951;-69
2023/01/22 14:15:36;;;;;;;;;;;1.20;99.90;;;;;;5125079;28;19920;-69
2023/01/22 14:18:07;;;;;;;;;;;1.10;99.90;;;;;;5124767;28;20200;-69
2023/01/22 14:20:35;;;;;;;;;;;1.10;99.90;;;;;;5125078;28;19928;-69
2023/01/22 14:23:01;;;;;;;;;;;1.00;99.90;;;;;;5124951;28;19919;-69
2023/01/22 14:25:28;;;;;;;;;;;1.00;99.90;;;;;;5125011;28;20177;-69
2023/01/22 14:27:58;;;;;;;;;;;0.90;99.90;;;;;;5124646;28;19986;-69
2023/01/22 14:30:25;;;;;;;;;;;0.90;99.90;;;;;;5124863;28;19991;-69
2023/01/22 14:32:52;;;;;;;;;;;0.90;99.90;;;;;;5124419;28;19951;-69
2023/01/22 14:35:20;;;;;;;;;;;0.90;99.90;;;;;;5124855;28;19954;-69
2023/01/22 14:37:48;;;;;;;;;;;0.90;99.90;;;;;;5124180;28;19920;-69
2023/01/22 14:40:16;;;;;;;;;;;1.00;99.90;;;;;;5125099;28;20219;-69